sensor_id;sensor_type;location;lat;lon;timestamp;P1;durP1;ratioP1;P2;durP2;ratioP2
74495;SDS011;62979;55.720;37.606;2022-11-20T00:01:30;8.40;;;5.25;;
74495;SDS011;62979;55.720;37.606;2022-11-20T00:03:57;10.00;;;6.03;;
74495;SDS011;62979;55.720;37.606;2022-11-20T00:06:25;2.58;;;2.00;;
74495;SDS011;62979;55.720;37.606;2022-11-20T00:08:54;9.43;;;4.63;;
74495;SDS011;62979;55.720;37.606;2022-11-20T00:11:27;8.75;;;5.50;;
74495;SDS011;62979;55.720;37.606;2022-11-20T00:13:56;9.02;;;5.35;;
74495;SDS011;62979;55.720;37.606;2022-11-20T00:16:26;8.27;;;4.90;;
74495;SDS011;62979;55.720;37.606;2022-11-20T00:18:57;12.25;;;6.32;;
74495;SDS011;62979;55.720;37.606;2022-11-20T00:21:24;11.05;;;6.05;;
74495;SDS011;62979;55.720;37.606;2022-11-20T00:23:54;9.65;;;4.70;;
74495;SDS011;62979;55.720;37.606;2022-11-20T00:26:23;8.80;;;4.85;;
74495;SDS011;62979;55.720;37.606;2022-11-20T00:28:55;9.82;;;5.47;;
74495;SDS011;62979;55.720;37.606;2022-11-20T00:31:23;9.40;;;5.60;;
74495;SDS011;62979;55.720;37.606;2022-11-20T00:33:51;9.35;;;5.38;;
74495;SDS011;62979;55.720;37.606;2022-11-20T00:36:19;9.55;;;4.68;;
74495;SDS011;62979;55.720;37.606;2022-11-20T00:38:50;9.95;;;5.63;;
74495;SDS011;62979;55.720;37.606;2022-11-20T00:41:19;9.20;;;4.15;;
74495;SDS011;62979;55.720;37.606;2022-11-20T00:43:47;8.00;;;5.22;;
74495;SDS011;62979;55.720;37.606;2022-11-20T00:48:43;7.82;;;4.68;;
74495;SDS011;62979;55.720;37.606;2022-11-20T00:51:12;8.02;;;5.05;;
74495;SDS011;62979;55.720;37.606;2022-11-20T00:53:40;6.07;;;3.78;;
74495;SDS011;62979;55.720;37.606;2022-11-20T00:56:09;5.03;;;3.03;;
74495;SDS011;62979;55.720;37.606;2022-11-20T00:58:38;8.13;;;4.95;;
74495;SDS011;62979;55.720;37.606;2022-11-20T01:01:11;6.43;;;4.45;;
74495;SDS011;62979;55.720;37.606;2022-11-20T01:03:42;6.25;;;3.60;;
74495;SDS011;62979;55.720;37.606;2022-11-20T01:06:12;6.15;;;4.32;;
74495;SDS011;62979;55.720;37.606;2022-11-20T01:08:42;6.45;;;4.55;;
74495;SDS011;62979;55.720;37.606;2022-11-20T01:13:39;6.85;;;4.15;;
74495;SDS011;62979;55.720;37.606;2022-11-20T01:16:09;5.63;;;3.85;;
74495;SDS011;62979;55.720;37.606;2022-11-20T01:18:41;8.20;;;4.47;;
74495;SDS011;62979;55.720;37.606;2022-11-20T01:21:14;5.72;;;2.17;;
74495;SDS011;62979;55.720;37.606;2022-11-20T01:23:43;7.22;;;4.00;;
74495;SDS011;62979;55.720;37.606;2022-11-20T01:26:12;8.30;;;5.03;;
74495;SDS011;62979;55.720;37.606;2022-11-20T01:28:41;8.50;;;5.28;;
74495;SDS011;62979;55.720;37.606;2022-11-20T01:31:17;7.38;;;3.75;;
74495;SDS011;62979;55.720;37.606;2022-11-20T01:33:49;7.88;;;4.40;;
74495;SDS011;62979;55.720;37.606;2022-11-20T01:36:19;7.65;;;4.90;;
74495;SDS011;62979;55.720;37.606;2022-11-20T01:38:50;7.00;;;4.40;;
74495;SDS011;62979;55.720;37.606;2022-11-20T01:41:18;8.18;;;5.25;;
74495;SDS011;62979;55.720;37.606;2022-11-20T01:44:05;9.40;;;5.07;;
74495;SDS011;62979;55.720;37.606;2022-11-20T01:46:34;7.43;;;4.70;;
74495;SDS011;62979;55.720;37.606;2022-11-20T01:49:05;7.55;;;4.13;;
74495;SDS011;62979;55.720;37.606;2022-11-20T01:51:43;8.27;;;4.65;;
74495;SDS011;62979;55.720;37.606;2022-11-20T01:56:47;7.35;;;3.97;;
74495;SDS011;62979;55.720;37.606;2022-11-20T01:59:20;6.47;;;4.15;;
74495;SDS011;62979;55.720;37.606;2022-11-20T02:01:53;7.57;;;3.60;;
74495;SDS011;62979;55.720;37.606;2022-11-20T02:04:21;10.32;;;5.30;;
74495;SDS011;62979;55.720;37.606;2022-11-20T02:06:51;5.47;;;2.95;;
74495;SDS011;62979;55.720;37.606;2022-11-20T02:09:25;5.90;;;4.30;;
74495;SDS011;62979;55.720;37.606;2022-11-20T02:11:53;7.18;;;4.90;;
74495;SDS011;62979;55.720;37.606;2022-11-20T02:14:21;9.63;;;5.45;;
74495;SDS011;62979;55.720;37.606;2022-11-20T02:16:48;6.55;;;3.80;;
74495;SDS011;62979;55.720;37.606;2022-11-20T02:19:22;9.38;;;5.25;;
74495;SDS011;62979;55.720;37.606;2022-11-20T02:21:56;10.60;;;5.03;;
74495;SDS011;62979;55.720;37.606;2022-11-20T02:24:32;7.22;;;3.83;;
74495;SDS011;62979;55.720;37.606;2022-11-20T02:27:00;7.13;;;4.65;;
74495;SDS011;62979;55.720;37.606;2022-11-20T02:29:35;8.90;;;4.70;;
74495;SDS011;62979;55.720;37.606;2022-11-20T02:32:17;8.00;;;4.50;;
74495;SDS011;62979;55.720;37.606;2022-11-20T02:34:45;8.73;;;4.55;;
74495;SDS011;62979;55.720;37.606;2022-11-20T02:37:12;6.18;;;3.35;;
74495;SDS011;62979;55.720;37.606;2022-11-20T02:39:41;6.75;;;3.83;;
74495;SDS011;62979;55.720;37.606;2022-11-20T02:42:10;9.20;;;4.13;;
74495;SDS011;62979;55.720;37.606;2022-11-20T02:44:37;8.10;;;4.32;;
74495;SDS011;62979;55.720;37.606;2022-11-20T02:47:05;5.10;;;3.42;;
74495;SDS011;62979;55.720;37.606;2022-11-20T02:49:32;8.65;;;5.68;;
74495;SDS011;62979;55.720;37.606;2022-11-20T02:51:59;5.88;;;3.65;;
74495;SDS011;62979;55.720;37.606;2022-11-20T02:54:27;7.00;;;4.00;;
74495;SDS011;62979;55.720;37.606;2022-11-20T02:56:55;6.15;;;3.90;;
74495;SDS011;62979;55.720;37.606;2022-11-20T02:59:22;9.40;;;3.65;;
74495;SDS011;62979;55.720;37.606;2022-11-20T03:01:49;5.47;;;3.10;;
74495;SDS011;62979;55.720;37.606;2022-11-20T03:04:16;6.65;;;3.55;;
74495;SDS011;62979;55.720;37.606;2022-11-20T03:06:43;7.03;;;4.05;;
74495;SDS011;62979;55.720;37.606;2022-11-20T03:09:10;7.03;;;3.70;;
74495;SDS011;62979;55.720;37.606;2022-11-20T03:11:38;7.35;;;4.60;;
74495;SDS011;62979;55.720;37.606;2022-11-20T03:14:06;7.03;;;4.10;;
74495;SDS011;62979;55.720;37.606;2022-11-20T03:16:33;6.30;;;4.20;;
74495;SDS011;62979;55.720;37.606;2022-11-20T03:19:01;8.30;;;6.30;;
74495;SDS011;62979;55.720;37.606;2022-11-20T03:21:28;9.35;;;4.53;;
74495;SDS011;62979;55.720;37.606;2022-11-20T03:23:55;8.38;;;5.00;;
74495;SDS011;62979;55.720;37.606;2022-11-20T03:26:23;7.95;;;4.93;;
74495;SDS011;62979;55.720;37.606;2022-11-20T03:28:52;6.75;;;3.53;;
74495;SDS011;62979;55.720;37.606;2022-11-20T03:31:23;8.75;;;4.97;;
74495;SDS011;62979;55.720;37.606;2022-11-20T03:33:53;8.88;;;4.75;;
74495;SDS011;62979;55.720;37.606;2022-11-20T03:36:20;7.18;;;3.63;;
74495;SDS011;62979;55.720;37.606;2022-11-20T03:38:48;6.82;;;3.95;;
74495;SDS011;62979;55.720;37.606;2022-11-20T03:41:16;7.60;;;3.95;;
74495;SDS011;62979;55.720;37.606;2022-11-20T03:43:47;10.25;;;4.28;;
74495;SDS011;62979;55.720;37.606;2022-11-20T03:48:43;7.15;;;4.28;;
74495;SDS011;62979;55.720;37.606;2022-11-20T03:53:39;7.30;;;3.60;;
74495;SDS011;62979;55.720;37.606;2022-11-20T03:56:07;5.13;;;2.30;;
74495;SDS011;62979;55.720;37.606;2022-11-20T03:58:36;8.85;;;5.28;;
74495;SDS011;62979;55.720;37.606;2022-11-20T04:01:06;7.38;;;4.70;;
74495;SDS011;62979;55.720;37.606;2022-11-20T04:03:35;9.90;;;5.10;;
74495;SDS011;62979;55.720;37.606;2022-11-20T04:06:06;7.57;;;5.15;;
74495;SDS011;62979;55.720;37.606;2022-11-20T04:08:37;6.53;;;4.13;;
74495;SDS011;62979;55.720;37.606;2022-11-20T04:11:08;5.85;;;3.90;;
74495;SDS011;62979;55.720;37.606;2022-11-20T04:13:40;5.80;;;4.00;;
74495;SDS011;62979;55.720;37.606;2022-11-20T04:16:09;7.68;;;3.95;;
74495;SDS011;62979;55.720;37.606;2022-11-20T04:18:36;7.85;;;4.50;;
74495;SDS011;62979;55.720;37.606;2022-11-20T04:21:05;6.90;;;3.55;;
74495;SDS011;62979;55.720;37.606;2022-11-20T04:23:33;7.25;;;4.53;;
74495;SDS011;62979;55.720;37.606;2022-11-20T04:26:01;7.22;;;4.03;;
74495;SDS011;62979;55.720;37.606;2022-11-20T04:28:30;10.15;;;4.95;;
74495;SDS011;62979;55.720;37.606;2022-11-20T04:31:04;9.40;;;4.78;;
74495;SDS011;62979;55.720;37.606;2022-11-20T04:33:33;8.38;;;5.38;;
74495;SDS011;62979;55.720;37.606;2022-11-20T04:36:02;10.57;;;5.07;;
74495;SDS011;62979;55.720;37.606;2022-11-20T04:38:36;9.60;;;4.50;;
74495;SDS011;62979;55.720;37.606;2022-11-20T04:41:04;12.45;;;5.90;;
74495;SDS011;62979;55.720;37.606;2022-11-20T04:43:33;9.02;;;4.57;;
74495;SDS011;62979;55.720;37.606;2022-11-20T04:46:00;7.78;;;4.40;;
74495;SDS011;62979;55.720;37.606;2022-11-20T04:48:28;7.07;;;4.57;;
74495;SDS011;62979;55.720;37.606;2022-11-20T04:50:56;9.18;;;4.53;;
74495;SDS011;62979;55.720;37.606;2022-11-20T04:53:25;8.25;;;4.32;;
74495;SDS011;62979;55.720;37.606;2022-11-20T04:55:52;9.93;;;5.53;;
74495;SDS011;62979;55.720;37.606;2022-11-20T04:58:26;8.73;;;4.35;;
74495;SDS011;62979;55.720;37.606;2022-11-20T05:00:53;10.27;;;5.18;;
74495;SDS011;62979;55.720;37.606;2022-11-20T05:03:29;8.80;;;4.88;;
74495;SDS011;62979;55.720;37.606;2022-11-20T05:05:56;7.97;;;4.03;;
74495;SDS011;62979;55.720;37.606;2022-11-20T05:08:27;9.70;;;5.18;;
74495;SDS011;62979;55.720;37.606;2022-11-20T05:10:59;7.63;;;5.32;;
74495;SDS011;62979;55.720;37.606;2022-11-20T05:13:27;9.90;;;6.75;;
74495;SDS011;62979;55.720;37.606;2022-11-20T05:15:54;9.32;;;6.70;;
74495;SDS011;62979;55.720;37.606;2022-11-20T05:18:21;9.18;;;5.25;;
74495;SDS011;62979;55.720;37.606;2022-11-20T05:20:54;8.07;;;6.35;;
74495;SDS011;62979;55.720;37.606;2022-11-20T05:23:22;8.90;;;5.38;;
74495;SDS011;62979;55.720;37.606;2022-11-20T05:25:53;7.63;;;4.68;;
74495;SDS011;62979;55.720;37.606;2022-11-20T05:28:21;10.15;;;6.95;;
74495;SDS011;62979;55.720;37.606;2022-11-20T05:30:49;10.05;;;4.97;;
74495;SDS011;62979;55.720;37.606;2022-11-20T05:33:16;8.38;;;4.22;;
74495;SDS011;62979;55.720;37.606;2022-11-20T05:35:45;12.70;;;4.82;;
74495;SDS011;62979;55.720;37.606;2022-11-20T05:38:13;13.88;;;4.43;;
74495;SDS011;62979;55.720;37.606;2022-11-20T05:40:40;8.38;;;4.72;;
74495;SDS011;62979;55.720;37.606;2022-11-20T05:43:08;12.85;;;5.78;;
74495;SDS011;62979;55.720;37.606;2022-11-20T05:45:35;9.95;;;6.22;;
74495;SDS011;62979;55.720;37.606;2022-11-20T05:48:02;7.00;;;4.10;;
74495;SDS011;62979;55.720;37.606;2022-11-20T05:50:29;11.07;;;6.07;;
74495;SDS011;62979;55.720;37.606;2022-11-20T05:52:57;12.32;;;5.60;;
74495;SDS011;62979;55.720;37.606;2022-11-20T05:55:25;11.30;;;5.97;;
74495;SDS011;62979;55.720;37.606;2022-11-20T05:57:52;8.50;;;4.85;;
74495;SDS011;62979;55.720;37.606;2022-11-20T06:00:22;9.15;;;4.97;;
74495;SDS011;62979;55.720;37.606;2022-11-20T06:02:49;9.77;;;5.22;;
74495;SDS011;62979;55.720;37.606;2022-11-20T06:05:16;8.25;;;4.97;;
74495;SDS011;62979;55.720;37.606;2022-11-20T06:07:43;12.07;;;5.70;;
74495;SDS011;62979;55.720;37.606;2022-11-20T06:10:10;11.30;;;5.07;;
74495;SDS011;62979;55.720;37.606;2022-11-20T06:12:38;12.38;;;5.53;;
74495;SDS011;62979;55.720;37.606;2022-11-20T06:15:05;10.13;;;5.75;;
74495;SDS011;62979;55.720;37.606;2022-11-20T06:17:35;9.25;;;5.25;;
74495;SDS011;62979;55.720;37.606;2022-11-20T06:20:02;9.23;;;5.20;;
74495;SDS011;62979;55.720;37.606;2022-11-20T06:22:29;9.20;;;5.65;;
74495;SDS011;62979;55.720;37.606;2022-11-20T06:24:58;8.32;;;4.60;;
74495;SDS011;62979;55.720;37.606;2022-11-20T06:27:25;12.65;;;6.07;;
74495;SDS011;62979;55.720;37.606;2022-11-20T06:29:53;9.40;;;5.50;;
74495;SDS011;62979;55.720;37.606;2022-11-20T06:32:20;10.07;;;5.53;;
74495;SDS011;62979;55.720;37.606;2022-11-20T06:34:48;10.10;;;6.30;;
74495;SDS011;62979;55.720;37.606;2022-11-20T06:37:15;10.25;;;5.72;;
74495;SDS011;62979;55.720;37.606;2022-11-20T06:39:42;11.40;;;7.63;;
74495;SDS011;62979;55.720;37.606;2022-11-20T06:42:09;14.18;;;7.32;;
74495;SDS011;62979;55.720;37.606;2022-11-20T06:44:36;9.80;;;6.28;;
74495;SDS011;62979;55.720;37.606;2022-11-20T06:47:03;12.77;;;6.80;;
74495;SDS011;62979;55.720;37.606;2022-11-20T06:49:32;11.15;;;6.80;;
74495;SDS011;62979;55.720;37.606;2022-11-20T06:52:03;14.25;;;7.22;;
74495;SDS011;62979;55.720;37.606;2022-11-20T06:54:30;8.57;;;7.15;;
74495;SDS011;62979;55.720;37.606;2022-11-20T06:56:57;11.60;;;7.18;;
74495;SDS011;62979;55.720;37.606;2022-11-20T06:59:25;18.65;;;7.53;;
74495;SDS011;62979;55.720;37.606;2022-11-20T07:01:52;12.40;;;7.55;;
74495;SDS011;62979;55.720;37.606;2022-11-20T07:04:19;13.13;;;6.45;;
74495;SDS011;62979;55.720;37.606;2022-11-20T07:06:46;10.90;;;6.38;;
74495;SDS011;62979;55.720;37.606;2022-11-20T07:09:14;13.80;;;7.40;;
74495;SDS011;62979;55.720;37.606;2022-11-20T07:14:08;10.80;;;6.70;;
74495;SDS011;62979;55.720;37.606;2022-11-20T07:16:35;12.27;;;6.75;;
74495;SDS011;62979;55.720;37.606;2022-11-20T07:19:03;9.75;;;6.22;;
74495;SDS011;62979;55.720;37.606;2022-11-20T07:21:30;12.25;;;6.93;;
74495;SDS011;62979;55.720;37.606;2022-11-20T07:23:57;12.38;;;6.47;;
74495;SDS011;62979;55.720;37.606;2022-11-20T07:26:25;17.25;;;8.43;;
74495;SDS011;62979;55.720;37.606;2022-11-20T07:28:52;13.98;;;8.13;;
74495;SDS011;62979;55.720;37.606;2022-11-20T07:31:19;12.73;;;6.28;;
74495;SDS011;62979;55.720;37.606;2022-11-20T07:33:46;13.02;;;7.88;;
74495;SDS011;62979;55.720;37.606;2022-11-20T07:36:13;13.70;;;7.82;;
74495;SDS011;62979;55.720;37.606;2022-11-20T07:38:40;11.43;;;6.45;;
74495;SDS011;62979;55.720;37.606;2022-11-20T07:41:07;17.10;;;7.82;;
74495;SDS011;62979;55.720;37.606;2022-11-20T07:43:36;16.17;;;8.52;;
74495;SDS011;62979;55.720;37.606;2022-11-20T07:46:03;14.20;;;7.97;;
74495;SDS011;62979;55.720;37.606;2022-11-20T07:48:30;12.18;;;6.70;;
74495;SDS011;62979;55.720;37.606;2022-11-20T07:50:57;15.45;;;8.20;;
74495;SDS011;62979;55.720;37.606;2022-11-20T07:53:24;12.57;;;7.80;;
74495;SDS011;62979;55.720;37.606;2022-11-20T07:55:51;13.70;;;7.30;;
74495;SDS011;62979;55.720;37.606;2022-11-20T07:58:19;14.85;;;8.27;;
74495;SDS011;62979;55.720;37.606;2022-11-20T08:00:48;16.00;;;8.13;;
74495;SDS011;62979;55.720;37.606;2022-11-20T08:03:15;16.35;;;8.43;;
74495;SDS011;62979;55.720;37.606;2022-11-20T08:05:42;13.93;;;8.18;;
74495;SDS011;62979;55.720;37.606;2022-11-20T08:08:09;14.10;;;7.93;;
74495;SDS011;62979;55.720;37.606;2022-11-20T08:10:36;13.75;;;8.00;;
74495;SDS011;62979;55.720;37.606;2022-11-20T08:13:03;19.40;;;8.35;;
74495;SDS011;62979;55.720;37.606;2022-11-20T08:15:49;16.98;;;8.70;;
74495;SDS011;62979;55.720;37.606;2022-11-20T08:18:17;18.30;;;8.25;;
74495;SDS011;62979;55.720;37.606;2022-11-20T08:20:44;11.82;;;7.22;;
74495;SDS011;62979;55.720;37.606;2022-11-20T08:23:12;16.13;;;8.82;;
74495;SDS011;62979;55.720;37.606;2022-11-20T08:25:39;21.88;;;9.57;;
74495;SDS011;62979;55.720;37.606;2022-11-20T08:28:07;15.75;;;8.50;;
74495;SDS011;62979;55.720;37.606;2022-11-20T08:30:35;16.65;;;8.52;;
74495;SDS011;62979;55.720;37.606;2022-11-20T08:33:06;16.38;;;8.70;;
74495;SDS011;62979;55.720;37.606;2022-11-20T08:35:35;17.13;;;9.05;;
74495;SDS011;62979;55.720;37.606;2022-11-20T08:40:31;18.25;;;7.72;;
74495;SDS011;62979;55.720;37.606;2022-11-20T08:42:59;15.55;;;7.38;;
74495;SDS011;62979;55.720;37.606;2022-11-20T08:45:27;17.42;;;8.35;;
74495;SDS011;62979;55.720;37.606;2022-11-20T08:47:59;17.90;;;8.52;;
74495;SDS011;62979;55.720;37.606;2022-11-20T08:50:28;17.02;;;8.00;;
74495;SDS011;62979;55.720;37.606;2022-11-20T08:53:01;17.10;;;8.57;;
74495;SDS011;62979;55.720;37.606;2022-11-20T08:55:29;14.63;;;8.05;;
74495;SDS011;62979;55.720;37.606;2022-11-20T08:57:56;18.25;;;7.88;;
74495;SDS011;62979;55.720;37.606;2022-11-20T09:00:23;16.77;;;8.63;;
74495;SDS011;62979;55.720;37.606;2022-11-20T09:02:51;14.20;;;7.90;;
74495;SDS011;62979;55.720;37.606;2022-11-20T09:05:18;15.07;;;8.65;;
74495;SDS011;62979;55.720;37.606;2022-11-20T09:07:46;21.60;;;10.52;;
74495;SDS011;62979;55.720;37.606;2022-11-20T09:10:13;19.13;;;11.60;;
74495;SDS011;62979;55.720;37.606;2022-11-20T09:12:41;26.58;;;11.32;;
74495;SDS011;62979;55.720;37.606;2022-11-20T09:15:08;19.92;;;10.30;;
74495;SDS011;62979;55.720;37.606;2022-11-20T09:17:36;17.17;;;9.13;;
74495;SDS011;62979;55.720;37.606;2022-11-20T09:20:03;20.92;;;10.25;;
74495;SDS011;62979;55.720;37.606;2022-11-20T09:22:31;25.08;;;11.40;;
74495;SDS011;62979;55.720;37.606;2022-11-20T09:25:00;21.55;;;10.60;;
74495;SDS011;62979;55.720;37.606;2022-11-20T09:27:27;16.95;;;8.05;;
74495;SDS011;62979;55.720;37.606;2022-11-20T09:29:54;22.48;;;11.00;;
74495;SDS011;62979;55.720;37.606;2022-11-20T09:32:21;20.42;;;10.93;;
74495;SDS011;62979;55.720;37.606;2022-11-20T09:34:48;26.15;;;11.77;;
74495;SDS011;62979;55.720;37.606;2022-11-20T09:37:15;19.70;;;9.60;;
74495;SDS011;62979;55.720;37.606;2022-11-20T09:39:42;21.67;;;9.63;;
74495;SDS011;62979;55.720;37.606;2022-11-20T09:42:25;23.73;;;11.82;;
74495;SDS011;62979;55.720;37.606;2022-11-20T09:45:15;17.27;;;8.95;;
74495;SDS011;62979;55.720;37.606;2022-11-20T09:48:05;21.48;;;11.20;;
74495;SDS011;62979;55.720;37.606;2022-11-20T09:51:00;19.10;;;8.85;;
74495;SDS011;62979;55.720;37.606;2022-11-20T09:53:46;22.17;;;11.30;;
74495;SDS011;62979;55.720;37.606;2022-11-20T09:56:33;23.30;;;10.40;;
74495;SDS011;62979;55.720;37.606;2022-11-20T09:59:04;22.92;;;11.70;;
74495;SDS011;62979;55.720;37.606;2022-11-20T10:01:38;24.35;;;10.25;;
74495;SDS011;62979;55.720;37.606;2022-11-20T10:04:09;28.67;;;10.90;;
74495;SDS011;62979;55.720;37.606;2022-11-20T10:06:44;21.55;;;11.98;;
74495;SDS011;62979;55.720;37.606;2022-11-20T10:09:23;18.63;;;7.72;;
74495;SDS011;62979;55.720;37.606;2022-11-20T10:12:00;20.60;;;10.45;;
74495;SDS011;62979;55.720;37.606;2022-11-20T10:14:49;20.88;;;8.82;;
74495;SDS011;62979;55.720;37.606;2022-11-20T10:17:38;25.55;;;12.40;;
74495;SDS011;62979;55.720;37.606;2022-11-20T10:20:32;26.85;;;10.95;;
74495;SDS011;62979;55.720;37.606;2022-11-20T10:26:21;16.88;;;8.57;;
74495;SDS011;62979;55.720;37.606;2022-11-20T10:29:03;21.85;;;10.25;;
74495;SDS011;62979;55.720;37.606;2022-11-20T10:31:40;23.05;;;9.52;;
74495;SDS011;62979;55.720;37.606;2022-11-20T10:34:14;23.63;;;9.57;;
74495;SDS011;62979;55.720;37.606;2022-11-20T10:36:50;24.85;;;11.65;;
74495;SDS011;62979;55.720;37.606;2022-11-20T10:39:24;18.58;;;8.48;;
74495;SDS011;62979;55.720;37.606;2022-11-20T10:42:01;20.00;;;8.55;;
74495;SDS011;62979;55.720;37.606;2022-11-20T10:44:31;16.67;;;9.35;;
74495;SDS011;62979;55.720;37.606;2022-11-20T10:47:18;20.48;;;9.18;;
74495;SDS011;62979;55.720;37.606;2022-11-20T10:49:46;22.80;;;10.30;;
74495;SDS011;62979;55.720;37.606;2022-11-20T10:52:21;23.02;;;11.70;;
74495;SDS011;62979;55.720;37.606;2022-11-20T10:55:01;26.55;;;11.45;;
74495;SDS011;62979;55.720;37.606;2022-11-20T10:57:51;13.77;;;7.22;;
74495;SDS011;62979;55.720;37.606;2022-11-20T11:00:30;17.77;;;9.98;;
74495;SDS011;62979;55.720;37.606;2022-11-20T11:02:59;20.00;;;9.43;;
74495;SDS011;62979;55.720;37.606;2022-11-20T11:05:32;20.55;;;9.88;;
74495;SDS011;62979;55.720;37.606;2022-11-20T11:08:08;27.23;;;11.80;;
74495;SDS011;62979;55.720;37.606;2022-11-20T11:10:42;20.30;;;10.93;;
74495;SDS011;62979;55.720;37.606;2022-11-20T11:13:19;23.30;;;9.77;;
74495;SDS011;62979;55.720;37.606;2022-11-20T11:15:48;22.77;;;10.05;;
74495;SDS011;62979;55.720;37.606;2022-11-20T11:18:24;19.13;;;9.23;;
74495;SDS011;62979;55.720;37.606;2022-11-20T11:20:55;20.02;;;8.52;;
74495;SDS011;62979;55.720;37.606;2022-11-20T11:23:30;17.63;;;9.82;;
74495;SDS011;62979;55.720;37.606;2022-11-20T11:26:02;12.95;;;7.20;;
74495;SDS011;62979;55.720;37.606;2022-11-20T11:28:31;13.20;;;7.07;;
74495;SDS011;62979;55.720;37.606;2022-11-20T11:30:59;12.48;;;6.35;;
74495;SDS011;62979;55.720;37.606;2022-11-20T11:33:28;14.23;;;7.63;;
74495;SDS011;62979;55.720;37.606;2022-11-20T11:35:59;14.00;;;8.52;;
74495;SDS011;62979;55.720;37.606;2022-11-20T11:38:30;17.00;;;11.13;;
74495;SDS011;62979;55.720;37.606;2022-11-20T11:41:02;10.48;;;5.93;;
74495;SDS011;62979;55.720;37.606;2022-11-20T11:43:32;13.68;;;8.35;;
74495;SDS011;62979;55.720;37.606;2022-11-20T11:46:27;14.88;;;6.40;;
74495;SDS011;62979;55.720;37.606;2022-11-20T11:49:08;13.93;;;6.00;;
74495;SDS011;62979;55.720;37.606;2022-11-20T11:51:46;13.23;;;7.18;;
74495;SDS011;62979;55.720;37.606;2022-11-20T11:54:30;14.50;;;7.78;;
74495;SDS011;62979;55.720;37.606;2022-11-20T11:57:05;13.93;;;9.30;;
74495;SDS011;62979;55.720;37.606;2022-11-20T11:59:44;12.43;;;6.85;;
74495;SDS011;62979;55.720;37.606;2022-11-20T12:02:29;16.58;;;8.65;;
74495;SDS011;62979;55.720;37.606;2022-11-20T12:05:09;14.75;;;8.25;;
74495;SDS011;62979;55.720;37.606;2022-11-20T12:07:46;16.25;;;6.88;;
74495;SDS011;62979;55.720;37.606;2022-11-20T12:10:20;12.70;;;6.82;;
74495;SDS011;62979;55.720;37.606;2022-11-20T12:13:04;11.23;;;6.25;;
74495;SDS011;62979;55.720;37.606;2022-11-20T12:15:49;13.48;;;7.53;;
74495;SDS011;62979;55.720;37.606;2022-11-20T12:18:17;10.40;;;5.18;;
74495;SDS011;62979;55.720;37.606;2022-11-20T12:20:51;12.32;;;7.45;;
74495;SDS011;62979;55.720;37.606;2022-11-20T12:23:35;12.18;;;8.90;;
74495;SDS011;62979;55.720;37.606;2022-11-20T12:26:19;8.98;;;4.95;;
74495;SDS011;62979;55.720;37.606;2022-11-20T12:29:07;15.25;;;7.72;;
74495;SDS011;62979;55.720;37.606;2022-11-20T12:31:52;14.38;;;7.82;;
74495;SDS011;62979;55.720;37.606;2022-11-20T12:34:44;8.48;;;4.32;;
74495;SDS011;62979;55.720;37.606;2022-11-20T12:37:30;10.82;;;6.30;;
74495;SDS011;62979;55.720;37.606;2022-11-20T12:40:16;10.18;;;6.10;;
74495;SDS011;62979;55.720;37.606;2022-11-20T12:43:01;10.63;;;6.60;;
74495;SDS011;62979;55.720;37.606;2022-11-20T12:46:08;12.50;;;6.10;;
74495;SDS011;62979;55.720;37.606;2022-11-20T12:48:52;9.43;;;6.05;;
74495;SDS011;62979;55.720;37.606;2022-11-20T12:51:45;14.15;;;7.10;;
74495;SDS011;62979;55.720;37.606;2022-11-20T12:54:39;9.77;;;6.00;;
74495;SDS011;62979;55.720;37.606;2022-11-20T12:57:29;8.10;;;4.75;;
74495;SDS011;62979;55.720;37.606;2022-11-20T13:00:14;13.82;;;7.95;;
74495;SDS011;62979;55.720;37.606;2022-11-20T13:02:52;13.98;;;7.95;;
74495;SDS011;62979;55.720;37.606;2022-11-20T13:05:37;11.52;;;6.05;;
74495;SDS011;62979;55.720;37.606;2022-11-20T13:08:19;13.35;;;7.70;;
74495;SDS011;62979;55.720;37.606;2022-11-20T13:10:54;8.93;;;4.50;;
74495;SDS011;62979;55.720;37.606;2022-11-20T13:13:35;13.48;;;6.85;;
74495;SDS011;62979;55.720;37.606;2022-11-20T13:16:24;7.35;;;3.17;;
74495;SDS011;62979;55.720;37.606;2022-11-20T13:19:12;9.73;;;5.75;;
74495;SDS011;62979;55.720;37.606;2022-11-20T13:21:43;14.07;;;7.75;;
74495;SDS011;62979;55.720;37.606;2022-11-20T13:24:20;11.75;;;6.82;;
74495;SDS011;62979;55.720;37.606;2022-11-20T13:27:04;12.02;;;5.50;;
74495;SDS011;62979;55.720;37.606;2022-11-20T13:29:47;11.25;;;6.20;;
74495;SDS011;62979;55.720;37.606;2022-11-20T13:32:28;14.98;;;7.82;;
74495;SDS011;62979;55.720;37.606;2022-11-20T13:34:58;8.55;;;4.20;;
74495;SDS011;62979;55.720;37.606;2022-11-20T13:37:28;12.20;;;6.63;;
74495;SDS011;62979;55.720;37.606;2022-11-20T13:40:21;12.52;;;7.07;;
74495;SDS011;62979;55.720;37.606;2022-11-20T13:42:56;11.90;;;6.40;;
74495;SDS011;62979;55.720;37.606;2022-11-20T13:45:37;10.32;;;6.03;;
74495;SDS011;62979;55.720;37.606;2022-11-20T13:48:15;14.57;;;5.93;;
74495;SDS011;62979;55.720;37.606;2022-11-20T13:50:52;12.82;;;6.45;;
74495;SDS011;62979;55.720;37.606;2022-11-20T13:53:42;12.52;;;8.00;;
74495;SDS011;62979;55.720;37.606;2022-11-20T13:56:47;14.30;;;7.88;;
74495;SDS011;62979;55.720;37.606;2022-11-20T13:59:31;13.05;;;6.53;;
74495;SDS011;62979;55.720;37.606;2022-11-20T14:02:15;12.43;;;8.05;;
74495;SDS011;62979;55.720;37.606;2022-11-20T14:04:45;12.95;;;7.38;;
74495;SDS011;62979;55.720;37.606;2022-11-20T14:07:16;12.90;;;5.32;;
74495;SDS011;62979;55.720;37.606;2022-11-20T14:09:50;15.18;;;6.75;;
74495;SDS011;62979;55.720;37.606;2022-11-20T14:12:19;16.30;;;8.25;;
74495;SDS011;62979;55.720;37.606;2022-11-20T14:14:51;12.82;;;6.68;;
74495;SDS011;62979;55.720;37.606;2022-11-20T14:17:21;14.80;;;7.55;;
74495;SDS011;62979;55.720;37.606;2022-11-20T14:19:51;16.05;;;7.25;;
74495;SDS011;62979;55.720;37.606;2022-11-20T14:22:22;12.63;;;6.63;;
74495;SDS011;62979;55.720;37.606;2022-11-20T14:25:00;11.50;;;6.53;;
74495;SDS011;62979;55.720;37.606;2022-11-20T14:27:32;6.40;;;3.88;;
74495;SDS011;62979;55.720;37.606;2022-11-20T14:30:04;12.95;;;7.47;;
74495;SDS011;62979;55.720;37.606;2022-11-20T14:32:38;14.23;;;8.35;;
74495;SDS011;62979;55.720;37.606;2022-11-20T14:35:09;13.75;;;7.45;;
74495;SDS011;62979;55.720;37.606;2022-11-20T14:37:44;16.15;;;7.22;;
74495;SDS011;62979;55.720;37.606;2022-11-20T14:40:22;14.07;;;6.82;;
74495;SDS011;62979;55.720;37.606;2022-11-20T14:42:53;11.93;;;7.50;;
74495;SDS011;62979;55.720;37.606;2022-11-20T14:45:21;13.23;;;8.15;;
74495;SDS011;62979;55.720;37.606;2022-11-20T14:47:51;12.65;;;6.97;;
74495;SDS011;62979;55.720;37.606;2022-11-20T14:50:20;13.80;;;6.57;;
74495;SDS011;62979;55.720;37.606;2022-11-20T14:52:51;13.20;;;7.13;;
74495;SDS011;62979;55.720;37.606;2022-11-20T14:55:26;16.50;;;8.43;;
74495;SDS011;62979;55.720;37.606;2022-11-20T14:57:57;14.93;;;9.23;;
74495;SDS011;62979;55.720;37.606;2022-11-20T15:00:29;17.17;;;8.82;;
74495;SDS011;62979;55.720;37.606;2022-11-20T15:02:57;13.77;;;7.35;;
74495;SDS011;62979;55.720;37.606;2022-11-20T15:05:25;14.88;;;6.38;;
74495;SDS011;62979;55.720;37.606;2022-11-20T15:08:11;14.38;;;9.13;;
74495;SDS011;62979;55.720;37.606;2022-11-20T15:10:44;14.65;;;8.13;;
74495;SDS011;62979;55.720;37.606;2022-11-20T15:13:15;12.38;;;7.82;;
74495;SDS011;62979;55.720;37.606;2022-11-20T15:15:53;10.27;;;7.15;;